sensor_id;sensor_type;location;lat;lon;timestamp;P1;durP1;ratioP1;P2;durP2;ratioP2
40971;SDS011;26701;47.408;19.174;2022-09-16T00:00:43;12.05;;;5.13;;
40971;SDS011;26701;47.408;19.174;2022-09-16T00:03:10;11.10;;;5.10;;
40971;SDS011;26701;47.408;19.174;2022-09-16T00:05:40;12.15;;;4.90;;
40971;SDS011;26701;47.408;19.174;2022-09-16T00:08:06;10.35;;;5.25;;
40971;SDS011;26701;47.408;19.174;2022-09-16T00:10:32;10.70;;;5.00;;
40971;SDS011;26701;47.408;19.174;2022-09-16T00:12:59;12.68;;;5.50;;
40971;SDS011;26701;47.408;19.174;2022-09-16T00:15:26;12.65;;;5.70;;
40971;SDS011;26701;47.408;19.174;2022-09-16T00:17:52;10.05;;;4.90;;
40971;SDS011;26701;47.408;19.174;2022-09-16T00:20:18;14.95;;;6.13;;
40971;SDS011;26701;47.408;19.174;2022-09-16T00:22:44;11.68;;;5.05;;
40971;SDS011;26701;47.408;19.174;2022-09-16T00:25:10;11.02;;;5.53;;
40971;SDS011;26701;47.408;19.174;2022-09-16T00:27:36;13.88;;;6.45;;
40971;SDS011;26701;47.408;19.174;2022-09-16T00:30:02;12.30;;;5.22;;
40971;SDS011;26701;47.408;19.174;2022-09-16T00:32:29;11.98;;;5.45;;
40971;SDS011;26701;47.408;19.174;2022-09-16T00:34:55;14.40;;;5.97;;
40971;SDS011;26701;47.408;19.174;2022-09-16T00:37:21;11.60;;;4.95;;
40971;SDS011;26701;47.408;19.174;2022-09-16T00:39:47;8.63;;;4.35;;
40971;SDS011;26701;47.408;19.174;2022-09-16T00:42:14;9.88;;;4.50;;
40971;SDS011;26701;47.408;19.174;2022-09-16T00:44:51;7.30;;;3.55;;
40971;SDS011;26701;47.408;19.174;2022-09-16T00:47:26;10.88;;;4.25;;
40971;SDS011;26701;47.408;19.174;2022-09-16T00:49:55;9.45;;;5.03;;
40971;SDS011;26701;47.408;19.174;2022-09-16T00:52:23;8.60;;;4.47;;
40971;SDS011;26701;47.408;19.174;2022-09-16T00:54:51;8.63;;;4.40;;
40971;SDS011;26701;47.408;19.174;2022-09-16T00:57:17;9.32;;;3.92;;
40971;SDS011;26701;47.408;19.174;2022-09-16T00:59:45;10.02;;;4.60;;
40971;SDS011;26701;47.408;19.174;2022-09-16T01:02:17;10.95;;;4.18;;
40971;SDS011;26701;47.408;19.174;2022-09-16T01:04:45;9.98;;;4.43;;
40971;SDS011;26701;47.408;19.174;2022-09-16T01:07:23;10.32;;;4.28;;
40971;SDS011;26701;47.408;19.174;2022-09-16T01:10:23;8.35;;;3.92;;
40971;SDS011;26701;47.408;19.174;2022-09-16T01:12:54;8.50;;;4.10;;
40971;SDS011;26701;47.408;19.174;2022-09-16T01:15:25;8.75;;;3.78;;
40971;SDS011;26701;47.408;19.174;2022-09-16T01:28:56;10.23;;;4.30;;
40971;SDS011;26701;47.408;19.174;2022-09-16T01:34:01;10.70;;;4.35;;
40971;SDS011;26701;47.408;19.174;2022-09-16T01:36:49;9.30;;;4.47;;
40971;SDS011;26701;47.408;19.174;2022-09-16T01:50:09;9.65;;;4.43;;
40971;SDS011;26701;47.408;19.174;2022-09-16T01:52:40;8.88;;;4.05;;
40971;SDS011;26701;47.408;19.174;2022-09-16T01:55:35;12.18;;;5.38;;
40971;SDS011;26701;47.408;19.174;2022-09-16T02:00:35;11.88;;;4.45;;
40971;SDS011;26701;47.408;19.174;2022-09-16T02:03:06;9.50;;;4.82;;
40971;SDS011;26701;47.408;19.174;2022-09-16T02:05:55;18.58;;;5.13;;
40971;SDS011;26701;47.408;19.174;2022-09-16T02:08:25;10.02;;;4.63;;
40971;SDS011;26701;47.408;19.174;2022-09-16T02:10:56;9.65;;;4.95;;
40971;SDS011;26701;47.408;19.174;2022-09-16T02:13:29;11.68;;;5.10;;
40971;SDS011;26701;47.408;19.174;2022-09-16T02:15:57;9.60;;;4.70;;
40971;SDS011;26701;47.408;19.174;2022-09-16T02:18:26;15.38;;;5.55;;
40971;SDS011;26701;47.408;19.174;2022-09-16T02:20:54;8.75;;;4.20;;
40971;SDS011;26701;47.408;19.174;2022-09-16T02:23:27;11.23;;;5.20;;
40971;SDS011;26701;47.408;19.174;2022-09-16T02:25:55;10.20;;;4.80;;
40971;SDS011;26701;47.408;19.174;2022-09-16T02:28:24;10.00;;;4.53;;
40971;SDS011;26701;47.408;19.174;2022-09-16T02:30:56;11.73;;;5.38;;
40971;SDS011;26701;47.408;19.174;2022-09-16T02:33:23;11.82;;;4.72;;
40971;SDS011;26701;47.408;19.174;2022-09-16T02:35:54;9.57;;;4.50;;
40971;SDS011;26701;47.408;19.174;2022-09-16T02:38:33;13.38;;;4.90;;
40971;SDS011;26701;47.408;19.174;2022-09-16T02:43:26;12.70;;;5.18;;
40971;SDS011;26701;47.408;19.174;2022-09-16T02:46:03;13.50;;;5.18;;
40971;SDS011;26701;47.408;19.174;2022-09-16T02:48:35;10.50;;;4.82;;
40971;SDS011;26701;47.408;19.174;2022-09-16T02:51:15;9.57;;;4.25;;
40971;SDS011;26701;47.408;19.174;2022-09-16T02:56:13;10.85;;;5.57;;
40971;SDS011;26701;47.408;19.174;2022-09-16T02:58:42;9.57;;;4.95;;
40971;SDS011;26701;47.408;19.174;2022-09-16T03:01:09;10.38;;;4.85;;
40971;SDS011;26701;47.408;19.174;2022-09-16T03:03:36;16.63;;;6.53;;
40971;SDS011;26701;47.408;19.174;2022-09-16T03:08:28;11.75;;;5.25;;
40971;SDS011;26701;47.408;19.174;2022-09-16T03:10:54;17.48;;;5.22;;
40971;SDS011;26701;47.408;19.174;2022-09-16T03:13:30;15.55;;;6.93;;
40971;SDS011;26701;47.408;19.174;2022-09-16T03:16:11;17.45;;;5.60;;
40971;SDS011;26701;47.408;19.174;2022-09-16T03:35:01;14.93;;;6.53;;
40971;SDS011;26701;47.408;19.174;2022-09-16T03:37:29;17.63;;;6.72;;
40971;SDS011;26701;47.408;19.174;2022-09-16T03:40:02;14.15;;;6.63;;
40971;SDS011;26701;47.408;19.174;2022-09-16T03:42:34;14.63;;;6.70;;
40971;SDS011;26701;47.408;19.174;2022-09-16T03:45:00;14.05;;;6.60;;
40971;SDS011;26701;47.408;19.174;2022-09-16T03:47:26;13.60;;;6.65;;
40971;SDS011;26701;47.408;19.174;2022-09-16T03:49:52;14.85;;;7.05;;
40971;SDS011;26701;47.408;19.174;2022-09-16T03:52:18;12.50;;;6.30;;
40971;SDS011;26701;47.408;19.174;2022-09-16T03:54:44;17.33;;;7.50;;
40971;SDS011;26701;47.408;19.174;2022-09-16T03:57:10;12.23;;;6.40;;
40971;SDS011;26701;47.408;19.174;2022-09-16T03:59:37;15.02;;;6.82;;
40971;SDS011;26701;47.408;19.174;2022-09-16T04:02:03;16.63;;;6.65;;
40971;SDS011;26701;47.408;19.174;2022-09-16T04:04:29;18.10;;;7.47;;
40971;SDS011;26701;47.408;19.174;2022-09-16T04:06:55;17.38;;;6.95;;
40971;SDS011;26701;47.408;19.174;2022-09-16T04:09:21;15.73;;;7.38;;
40971;SDS011;26701;47.408;19.174;2022-09-16T04:11:47;14.35;;;6.43;;
40971;SDS011;26701;47.408;19.174;2022-09-16T04:14:13;14.85;;;7.25;;
40971;SDS011;26701;47.408;19.174;2022-09-16T04:16:40;17.65;;;7.80;;
40971;SDS011;26701;47.408;19.174;2022-09-16T04:19:06;18.35;;;8.07;;
40971;SDS011;26701;47.408;19.174;2022-09-16T04:21:32;15.63;;;7.95;;
40971;SDS011;26701;47.408;19.174;2022-09-16T04:23:58;16.17;;;7.88;;
40971;SDS011;26701;47.408;19.174;2022-09-16T04:26:24;22.83;;;9.90;;
40971;SDS011;26701;47.408;19.174;2022-09-16T04:28:51;21.48;;;8.93;;
40971;SDS011;26701;47.408;19.174;2022-09-16T04:31:18;25.97;;;10.20;;
40971;SDS011;26701;47.408;19.174;2022-09-16T04:33:45;16.10;;;7.68;;
40971;SDS011;26701;47.408;19.174;2022-09-16T04:36:12;14.02;;;7.20;;
40971;SDS011;26701;47.408;19.174;2022-09-16T04:38:39;25.50;;;9.00;;
40971;SDS011;26701;47.408;19.174;2022-09-16T04:41:22;24.50;;;9.43;;
40971;SDS011;26701;47.408;19.174;2022-09-16T04:43:49;23.50;;;9.52;;
40971;SDS011;26701;47.408;19.174;2022-09-16T04:46:23;19.73;;;8.77;;
40971;SDS011;26701;47.408;19.174;2022-09-16T04:48:53;23.48;;;9.90;;
40971;SDS011;26701;47.408;19.174;2022-09-16T04:51:21;22.27;;;9.35;;
40971;SDS011;26701;47.408;19.174;2022-09-16T04:53:47;24.67;;;9.60;;
40971;SDS011;26701;47.408;19.174;2022-09-16T04:56:35;22.15;;;9.77;;
40971;SDS011;26701;47.408;19.174;2022-09-16T04:59:01;19.80;;;9.20;;
40971;SDS011;26701;47.408;19.174;2022-09-16T05:01:29;18.15;;;8.57;;
40971;SDS011;26701;47.408;19.174;2022-09-16T05:03:57;21.67;;;10.13;;
40971;SDS011;26701;47.408;19.174;2022-09-16T05:06:25;23.25;;;9.38;;
40971;SDS011;26701;47.408;19.174;2022-09-16T05:08:52;29.63;;;11.02;;
40971;SDS011;26701;47.408;19.174;2022-09-16T05:11:19;20.60;;;9.10;;
40971;SDS011;26701;47.408;19.174;2022-09-16T05:13:47;23.02;;;9.65;;
40971;SDS011;26701;47.408;19.174;2022-09-16T05:16:17;20.88;;;9.07;;
40971;SDS011;26701;47.408;19.174;2022-09-16T05:18:47;23.58;;;10.43;;
40971;SDS011;26701;47.408;19.174;2022-09-16T05:21:15;20.42;;;9.35;;
40971;SDS011;26701;47.408;19.174;2022-09-16T05:23:42;22.67;;;9.37;;
40971;SDS011;26701;47.408;19.174;2022-09-16T05:26:09;24.75;;;10.38;;
40971;SDS011;26701;47.408;19.174;2022-09-16T05:28:36;21.85;;;11.10;;
40971;SDS011;26701;47.408;19.174;2022-09-16T05:31:09;31.25;;;11.75;;
40971;SDS011;26701;47.408;19.174;2022-09-16T05:33:36;22.70;;;10.13;;
40971;SDS011;26701;47.408;19.174;2022-09-16T05:36:07;22.60;;;10.55;;
40971;SDS011;26701;47.408;19.174;2022-09-16T05:38:33;18.15;;;9.43;;
40971;SDS011;26701;47.408;19.174;2022-09-16T05:41:00;19.70;;;9.75;;
40971;SDS011;26701;47.408;19.174;2022-09-16T05:43:26;18.40;;;9.23;;
40971;SDS011;26701;47.408;19.174;2022-09-16T05:45:53;19.52;;;10.57;;
40971;SDS011;26701;47.408;19.174;2022-09-16T05:48:19;18.27;;;9.73;;
40971;SDS011;26701;47.408;19.174;2022-09-16T05:51:04;19.45;;;9.43;;
40971;SDS011;26701;47.408;19.174;2022-09-16T05:53:32;21.23;;;10.35;;
40971;SDS011;26701;47.408;19.174;2022-09-16T05:56:02;22.50;;;9.93;;
40971;SDS011;26701;47.408;19.174;2022-09-16T05:58:29;20.42;;;9.63;;
40971;SDS011;26701;47.408;19.174;2022-09-16T06:01:00;20.38;;;10.40;;
40971;SDS011;26701;47.408;19.174;2022-09-16T06:03:27;20.17;;;10.02;;
40971;SDS011;26701;47.408;19.174;2022-09-16T06:06:54;23.83;;;9.77;;
40971;SDS011;26701;47.408;19.174;2022-09-16T06:08:50;20.33;;;9.80;;
40971;SDS011;26701;47.408;19.174;2022-09-16T06:11:16;20.40;;;10.75;;
40971;SDS011;26701;47.408;19.174;2022-09-16T06:13:42;17.05;;;9.50;;
40971;SDS011;26701;47.408;19.174;2022-09-16T06:16:09;22.77;;;11.10;;
40971;SDS011;26701;47.408;19.174;2022-09-16T06:18:35;23.23;;;10.13;;
40971;SDS011;26701;47.408;19.174;2022-09-16T06:21:06;20.63;;;10.00;;
40971;SDS011;26701;47.408;19.174;2022-09-16T06:23:33;20.60;;;10.38;;
40971;SDS011;26701;47.408;19.174;2022-09-16T06:26:06;22.13;;;11.15;;
40971;SDS011;26701;47.408;19.174;2022-09-16T06:28:32;28.98;;;13.02;;
40971;SDS011;26701;47.408;19.174;2022-09-16T06:33:34;26.67;;;10.68;;
40971;SDS011;26701;47.408;19.174;2022-09-16T06:36:07;23.08;;;11.30;;
40971;SDS011;26701;47.408;19.174;2022-09-16T06:38:33;20.73;;;10.27;;
40971;SDS011;26701;47.408;19.174;2022-09-16T06:41:01;22.80;;;10.60;;
40971;SDS011;26701;47.408;19.174;2022-09-16T06:43:27;26.90;;;10.52;;
40971;SDS011;26701;47.408;19.174;2022-09-16T06:46:01;24.20;;;10.57;;
40971;SDS011;26701;47.408;19.174;2022-09-16T06:48:27;22.23;;;10.45;;
40971;SDS011;26701;47.408;19.174;2022-09-16T06:50:57;25.60;;;10.50;;
40971;SDS011;26701;47.408;19.174;2022-09-16T06:53:23;26.83;;;11.75;;
40971;SDS011;26701;47.408;19.174;2022-09-16T06:55:50;22.75;;;10.43;;
40971;SDS011;26701;47.408;19.174;2022-09-16T06:58:16;28.02;;;12.77;;
40971;SDS011;26701;47.408;19.174;2022-09-16T07:00:42;22.80;;;11.52;;
40971;SDS011;26701;47.408;19.174;2022-09-16T07:03:09;24.30;;;10.70;;
40971;SDS011;26701;47.408;19.174;2022-09-16T07:05:35;25.13;;;11.40;;
40971;SDS011;26701;47.408;19.174;2022-09-16T07:08:01;23.00;;;11.18;;
40971;SDS011;26701;47.408;19.174;2022-09-16T07:10:27;25.13;;;10.52;;
40971;SDS011;26701;47.408;19.174;2022-09-16T07:12:54;23.50;;;11.20;;
40971;SDS011;26701;47.408;19.174;2022-09-16T07:15:21;28.02;;;13.25;;
40971;SDS011;26701;47.408;19.174;2022-09-16T07:17:52;23.33;;;11.57;;
40971;SDS011;26701;47.408;19.174;2022-09-16T07:20:19;25.70;;;11.63;;
40971;SDS011;26701;47.408;19.174;2022-09-16T07:22:45;27.33;;;12.07;;
40971;SDS011;26701;47.408;19.174;2022-09-16T07:25:15;24.77;;;9.98;;
40971;SDS011;26701;47.408;19.174;2022-09-16T07:27:41;27.98;;;11.13;;
40971;SDS011;26701;47.408;19.174;2022-09-16T07:30:07;21.73;;;9.88;;
40971;SDS011;26701;47.408;19.174;2022-09-16T07:32:33;20.30;;;9.18;;
40971;SDS011;26701;47.408;19.174;2022-09-16T07:34:59;20.88;;;9.30;;
40971;SDS011;26701;47.408;19.174;2022-09-16T07:37:27;22.60;;;9.93;;
40971;SDS011;26701;47.408;19.174;2022-09-16T07:39:52;20.13;;;8.93;;
40971;SDS011;26701;47.408;19.174;2022-09-16T07:42:18;16.88;;;8.75;;
40971;SDS011;26701;47.408;19.174;2022-09-16T07:44:44;20.77;;;10.20;;
40971;SDS011;26701;47.408;19.174;2022-09-16T07:47:10;16.90;;;8.20;;
40971;SDS011;26701;47.408;19.174;2022-09-16T07:49:37;21.85;;;10.35;;
40971;SDS011;26701;47.408;19.174;2022-09-16T07:52:03;18.35;;;8.88;;
40971;SDS011;26701;47.408;19.174;2022-09-16T07:54:29;15.98;;;8.13;;
40971;SDS011;26701;47.408;19.174;2022-09-16T07:56:56;19.02;;;8.77;;
40971;SDS011;26701;47.408;19.174;2022-09-16T07:59:22;21.52;;;9.57;;
40971;SDS011;26701;47.408;19.174;2022-09-16T08:01:48;22.77;;;9.95;;
40971;SDS011;26701;47.408;19.174;2022-09-16T08:04:15;21.88;;;10.07;;
40971;SDS011;26701;47.408;19.174;2022-09-16T08:06:41;15.50;;;8.90;;
40971;SDS011;26701;47.408;19.174;2022-09-16T08:09:07;16.83;;;8.30;;
40971;SDS011;26701;47.408;19.174;2022-09-16T08:11:33;24.73;;;9.43;;
40971;SDS011;26701;47.408;19.174;2022-09-16T08:14:00;18.67;;;8.20;;
40971;SDS011;26701;47.408;19.174;2022-09-16T08:16:27;16.50;;;8.02;;
40971;SDS011;26701;47.408;19.174;2022-09-16T08:18:54;15.77;;;7.20;;
40971;SDS011;26701;47.408;19.174;2022-09-16T08:21:22;18.13;;;7.65;;
40971;SDS011;26701;47.408;19.174;2022-09-16T08:23:48;26.95;;;10.60;;
40971;SDS011;26701;47.408;19.174;2022-09-16T08:26:15;13.00;;;7.35;;
40971;SDS011;26701;47.408;19.174;2022-09-16T08:28:42;18.25;;;7.97;;
40971;SDS011;26701;47.408;19.174;2022-09-16T08:33:37;12.95;;;6.43;;
40971;SDS011;26701;47.408;19.174;2022-09-16T08:38:48;14.68;;;6.63;;
40971;SDS011;26701;47.408;19.174;2022-09-16T08:46:56;20.85;;;7.28;;
40971;SDS011;26701;47.408;19.174;2022-09-16T08:52:04;13.32;;;6.70;;
40971;SDS011;26701;47.408;19.174;2022-09-16T08:54:48;13.38;;;6.05;;
40971;SDS011;26701;47.408;19.174;2022-09-16T08:57:18;15.45;;;6.55;;
40971;SDS011;26701;47.408;19.174;2022-09-16T09:00:07;10.32;;;5.57;;
40971;SDS011;26701;47.408;19.174;2022-09-16T09:12:39;11.20;;;6.10;;
40971;SDS011;26701;47.408;19.174;2022-09-16T09:26:13;11.45;;;4.97;;
40971;SDS011;26701;47.408;19.174;2022-09-16T09:34:03;8.45;;;3.85;;
40971;SDS011;26701;47.408;19.174;2022-09-16T09:44:47;12.90;;;5.03;;
40971;SDS011;26701;47.408;19.174;2022-09-16T09:47:20;14.75;;;5.10;;
40971;SDS011;26701;47.408;19.174;2022-09-16T09:49:50;15.18;;;4.57;;
40971;SDS011;26701;47.408;19.174;2022-09-16T09:52:21;10.32;;;4.95;;
40971;SDS011;26701;47.408;19.174;2022-09-16T09:54:55;9.38;;;4.90;;
40971;SDS011;26701;47.408;19.174;2022-09-16T09:57:33;8.75;;;5.00;;
40971;SDS011;26701;47.408;19.174;2022-09-16T10:00:12;13.27;;;5.55;;
40971;SDS011;26701;47.408;19.174;2022-09-16T10:02:40;11.88;;;5.72;;
40971;SDS011;26701;47.408;19.174;2022-09-16T10:05:26;16.83;;;6.80;;
40971;SDS011;26701;47.408;19.174;2022-09-16T10:08:01;11.63;;;5.00;;
40971;SDS011;26701;47.408;19.174;2022-09-16T10:10:28;11.25;;;5.68;;
40971;SDS011;26701;47.408;19.174;2022-09-16T10:13:07;15.27;;;6.63;;
40971;SDS011;26701;47.408;19.174;2022-09-16T10:15:34;10.35;;;5.53;;
40971;SDS011;26701;47.408;19.174;2022-09-16T10:18:00;17.88;;;7.05;;
40971;SDS011;26701;47.408;19.174;2022-09-16T10:20:30;17.13;;;6.07;;
40971;SDS011;26701;47.408;19.174;2022-09-16T10:23:05;14.55;;;6.28;;
40971;SDS011;26701;47.408;19.174;2022-09-16T10:25:35;14.65;;;5.45;;
40971;SDS011;26701;47.408;19.174;2022-09-16T10:28:04;16.58;;;6.32;;
40971;SDS011;26701;47.408;19.174;2022-09-16T10:30:48;10.13;;;4.85;;
40971;SDS011;26701;47.408;19.174;2022-09-16T10:33:19;16.10;;;6.40;;
40971;SDS011;26701;47.408;19.174;2022-09-16T10:35:52;12.77;;;5.80;;
40971;SDS011;26701;47.408;19.174;2022-09-16T10:38:26;17.50;;;6.75;;
40971;SDS011;26701;47.408;19.174;2022-09-16T10:41:13;12.43;;;5.07;;
40971;SDS011;26701;47.408;19.174;2022-09-16T10:44:00;17.25;;;6.72;;
40971;SDS011;26701;47.408;19.174;2022-09-16T10:46:27;13.75;;;5.57;;
40971;SDS011;26701;47.408;19.174;2022-09-16T10:48:57;13.13;;;5.47;;
40971;SDS011;26701;47.408;19.174;2022-09-16T10:51:27;12.10;;;5.28;;
40971;SDS011;26701;47.408;19.174;2022-09-16T10:53:56;11.23;;;5.05;;
40971;SDS011;26701;47.408;19.174;2022-09-16T10:56:24;11.95;;;5.47;;
40971;SDS011;26701;47.408;19.174;2022-09-16T10:59:03;10.48;;;5.43;;
40971;SDS011;26701;47.408;19.174;2022-09-16T11:09:48;9.40;;;4.00;;
40971;SDS011;26701;47.408;19.174;2022-09-16T11:12:41;15.63;;;5.38;;
40971;SDS011;26701;47.408;19.174;2022-09-16T11:15:16;11.52;;;4.03;;
40971;SDS011;26701;47.408;19.174;2022-09-16T11:26:12;9.63;;;4.97;;
40971;SDS011;26701;47.408;19.174;2022-09-16T11:34:22;7.85;;;4.57;;
40971;SDS011;26701;47.408;19.174;2022-09-16T11:37:18;16.00;;;6.57;;
40971;SDS011;26701;47.408;19.174;2022-09-16T11:42:34;19.60;;;7.05;;
40971;SDS011;26701;47.408;19.174;2022-09-16T11:47:35;34.45;;;11.60;;
40971;SDS011;26701;47.408;19.174;2022-09-16T11:50:07;10.18;;;4.53;;
40971;SDS011;26701;47.408;19.174;2022-09-16T11:55:57;15.00;;;5.75;;
40971;SDS011;26701;47.408;19.174;2022-09-16T12:01:25;9.85;;;5.03;;
40971;SDS011;26701;47.408;19.174;2022-09-16T12:06:37;11.05;;;5.40;;
40971;SDS011;26701;47.408;19.174;2022-09-16T12:09:11;17.35;;;6.57;;
40971;SDS011;26701;47.408;19.174;2022-09-16T12:11:45;13.45;;;5.75;;
40971;SDS011;26701;47.408;19.174;2022-09-16T12:14:21;14.57;;;5.40;;
40971;SDS011;26701;47.408;19.174;2022-09-16T12:19:50;13.73;;;4.10;;
40971;SDS011;26701;47.408;19.174;2022-09-16T12:22:25;19.25;;;7.40;;
40971;SDS011;26701;47.408;19.174;2022-09-16T12:25:10;14.38;;;5.35;;
40971;SDS011;26701;47.408;19.174;2022-09-16T12:27:59;12.05;;;5.40;;
40971;SDS011;26701;47.408;19.174;2022-09-16T12:30:33;13.93;;;5.45;;
40971;SDS011;26701;47.408;19.174;2022-09-16T12:33:09;14.45;;;6.05;;
40971;SDS011;26701;47.408;19.174;2022-09-16T12:38:17;15.48;;;6.35;;
40971;SDS011;26701;47.408;19.174;2022-09-16T12:54:31;14.60;;;6.32;;
40971;SDS011;26701;47.408;19.174;2022-09-16T12:57:06;19.33;;;7.57;;
40971;SDS011;26701;47.408;19.174;2022-09-16T13:04:41;17.33;;;6.93;;
40971;SDS011;26701;47.408;19.174;2022-09-16T13:07:15;14.70;;;6.50;;
40971;SDS011;26701;47.408;19.174;2022-09-16T13:09:43;14.90;;;6.28;;
40971;SDS011;26701;47.408;19.174;2022-09-16T13:12:21;14.05;;;6.47;;
40971;SDS011;26701;47.408;19.174;2022-09-16T13:14:49;12.40;;;6.10;;
40971;SDS011;26701;47.408;19.174;2022-09-16T13:17:25;12.52;;;5.40;;
40971;SDS011;26701;47.408;19.174;2022-09-16T13:19:52;17.70;;;5.88;;
40971;SDS011;26701;47.408;19.174;2022-09-16T13:22:23;11.80;;;5.65;;
40971;SDS011;26701;47.408;19.174;2022-09-16T13:27:39;11.88;;;4.60;;
40971;SDS011;26701;47.408;19.174;2022-09-16T13:37:42;12.60;;;4.65;;
40971;SDS011;26701;47.408;19.174;2022-09-16T13:40:51;8.38;;;4.30;;
40971;SDS011;26701;47.408;19.174;2022-09-16T13:45:37;10.82;;;5.35;;
40971;SDS011;26701;47.408;19.174;2022-09-16T13:50:49;9.38;;;4.68;;
40971;SDS011;26701;47.408;19.174;2022-09-16T13:53:19;9.65;;;4.22;;
40971;SDS011;26701;47.408;19.174;2022-09-16T13:55:46;9.07;;;4.40;;
40971;SDS011;26701;47.408;19.174;2022-09-16T14:00:44;15.82;;;5.20;;
40971;SDS011;26701;47.408;19.174;2022-09-16T14:03:19;10.52;;;4.30;;
40971;SDS011;26701;47.408;19.174;2022-09-16T14:14:02;14.98;;;4.88;;
40971;SDS011;26701;47.408;19.174;2022-09-16T14:16:29;11.75;;;4.45;;
40971;SDS011;26701;47.408;19.174;2022-09-16T14:22:03;16.63;;;4.30;;
40971;SDS011;26701;47.408;19.174;2022-09-16T14:24:37;13.38;;;4.82;;
40971;SDS011;26701;47.408;19.174;2022-09-16T14:27:03;14.35;;;5.22;;
40971;SDS011;26701;47.408;19.174;2022-09-16T14:29:30;13.07;;;4.90;;
40971;SDS011;26701;47.408;19.174;2022-09-16T14:31:57;11.77;;;5.03;;
40971;SDS011;26701;47.408;19.174;2022-09-16T14:34:28;14.15;;;4.97;;
40971;SDS011;26701;47.408;19.174;2022-09-16T14:36:55;12.35;;;5.20;;
40971;SDS011;26701;47.408;19.174;2022-09-16T14:39:22;14.05;;;4.65;;
40971;SDS011;26701;47.408;19.174;2022-09-16T14:41:50;10.30;;;4.47;;
40971;SDS011;26701;47.408;19.174;2022-09-16T14:46:44;9.93;;;4.47;;
40971;SDS011;26701;47.408;19.174;2022-09-16T14:49:11;12.63;;;4.85;;
40971;SDS011;26701;47.408;19.174;2022-09-16T14:51:41;9.77;;;4.38;;
40971;SDS011;26701;47.408;19.174;2022-09-16T14:54:14;16.35;;;5.05;;
40971;SDS011;26701;47.408;19.174;2022-09-16T14:56:41;10.30;;;4.32;;
40971;SDS011;26701;47.408;19.174;2022-09-16T14:59:11;8.65;;;3.80;;
40971;SDS011;26701;47.408;19.174;2022-09-16T15:01:38;11.93;;;4.57;;
40971;SDS011;26701;47.408;19.174;2022-09-16T15:04:13;9.00;;;3.33;;
40971;SDS011;26701;47.408;19.174;2022-09-16T15:06:43;7.63;;;3.28;;
40971;SDS011;26701;47.408;19.174;2022-09-16T15:09:25;9.10;;;3.63;;
40971;SDS011;26701;47.408;19.174;2022-09-16T15:11:56;10.93;;;3.97;;
40971;SDS011;26701;47.408;19.174;2022-09-16T15:14:23;12.00;;;4.90;;
40971;SDS011;26701;47.408;19.174;2022-09-16T15:16:52;8.13;;;3.72;;
40971;SDS011;26701;47.408;19.174;2022-09-16T15:19:20;23.02;;;7.43;;
40971;SDS011;26701;47.408;19.174;2022-09-16T15:21:51;9.23;;;3.65;;
40971;SDS011;26701;47.408;19.174;2022-09-16T15:24:22;10.50;;;3.70;;
40971;SDS011;26701;47.408;19.174;2022-09-16T15:26:50;10.23;;;3.28;;
40971;SDS011;26701;47.408;19.174;2022-09-16T15:31:47;11.95;;;4.25;;
40971;SDS011;26701;47.408;19.174;2022-09-16T15:36:44;11.75;;;4.65;;
40971;SDS011;26701;47.408;19.174;2022-09-16T15:41:49;14.27;;;4.47;;
40971;SDS011;26701;47.408;19.174;2022-09-16T15:44:18;8.88;;;3.20;;
40971;SDS011;26701;47.408;19.174;2022-09-16T15:46:46;11.93;;;4.05;;
40971;SDS011;26701;47.408;19.174;2022-09-16T15:49:13;8.48;;;3.35;;
40971;SDS011;26701;47.408;19.174;2022-09-16T15:51:48;11.43;;;3.58;;
40971;SDS011;26701;47.408;19.174;2022-09-16T15:54:22;9.02;;;3.72;;
40971;SDS011;26701;47.408;19.174;2022-09-16T15:59:36;17.05;;;5.47;;
40971;SDS011;26701;47.408;19.174;2022-09-16T16:02:05;9.90;;;3.90;;
40971;SDS011;26701;47.408;19.174;2022-09-16T16:04:44;8.27;;;3.22;;
40971;SDS011;26701;47.408;19.174;2022-09-16T16:07:10;12.05;;;4.35;;
40971;SDS011;26701;47.408;19.174;2022-09-16T16:09:37;11.40;;;4.25;;
40971;SDS011;26701;47.408;19.174;2022-09-16T16:12:08;14.35;;;4.03;;
40971;SDS011;26701;47.408;19.174;2022-09-16T16:14:35;7.55;;;3.42;;
40971;SDS011;26701;47.408;19.174;2022-09-16T16:19:33;9.18;;;3.50;;
40971;SDS011;26701;47.408;19.174;2022-09-16T16:21:59;11.45;;;3.72;;
40971;SDS011;26701;47.408;19.174;2022-09-16T16:24:26;13.25;;;3.85;;
40971;SDS011;26701;47.408;19.174;2022-09-16T16:26:54;9.15;;;3.70;;
40971;SDS011;26701;47.408;19.174;2022-09-16T16:29:20;10.25;;;3.45;;
40971;SDS011;26701;47.408;19.174;2022-09-16T16:31:57;14.60;;;5.40;;
40971;SDS011;26701;47.408;19.174;2022-09-16T16:34:32;13.50;;;5.07;;
40971;SDS011;26701;47.408;19.174;2022-09-16T16:36:59;8.90;;;3.53;;
40971;SDS011;26701;47.408;19.174;2022-09-16T16:39:25;12.63;;;4.32;;
40971;SDS011;26701;47.408;19.174;2022-09-16T16:41:51;10.48;;;4.03;;
40971;SDS011;26701;47.408;19.174;2022-09-16T16:44:21;11.07;;;3.70;;
40971;SDS011;26701;47.408;19.174;2022-09-16T16:46:48;16.98;;;4.60;;
40971;SDS011;26701;47.408;19.174;2022-09-16T16:49:14;8.18;;;3.30;;
40971;SDS011;26701;47.408;19.174;2022-09-16T16:51:40;15.15;;;4.57;;
40971;SDS011;26701;47.408;19.174;2022-09-16T16:54:07;12.50;;;4.53;;
40971;SDS011;26701;47.408;19.174;2022-09-16T16:56:33;23.45;;;5.78;;
40971;SDS011;26701;47.408;19.174;2022-09-16T16:58:59;13.30;;;4.78;;
40971;SDS011;26701;47.408;19.174;2022-09-16T17:01:25;11.93;;;4.97;;
40971;SDS011;26701;47.408;19.174;2022-09-16T17:03:52;10.90;;;3.78;;
40971;SDS011;26701;47.408;19.174;2022-09-16T17:06:18;10.25;;;3.85;;
40971;SDS011;26701;47.408;19.174;2022-09-16T17:08:44;12.25;;;4.07;;
40971;SDS011;26701;47.408;19.174;2022-09-16T17:11:11;14.68;;;4.40;;
40971;SDS011;26701;47.408;19.174;2022-09-16T17:13:38;9.65;;;3.33;;
40971;SDS011;26701;47.408;19.174;2022-09-16T17:16:05;14.27;;;4.05;;
40971;SDS011;26701;47.408;19.174;2022-09-16T17:18:35;13.50;;;4.70;;
40971;SDS011;26701;47.408;19.174;2022-09-16T17:23:28;15.38;;;4.35;;
40971;SDS011;26701;47.408;19.174;2022-09-16T17:25:54;14.43;;;4.53;;
40971;SDS011;26701;47.408;19.174;2022-09-16T17:28:21;9.68;;;3.60;;
40971;SDS011;26701;47.408;19.174;2022-09-16T17:30:47;13.85;;;5.97;;
40971;SDS011;26701;47.408;19.174;2022-09-16T17:33:13;15.57;;;4.32;;
40971;SDS011;26701;47.408;19.174;2022-09-16T17:35:40;15.35;;;4.38;;
40971;SDS011;26701;47.408;19.174;2022-09-16T17:38:06;19.33;;;8.30;;
40971;SDS011;26701;47.408;19.174;2022-09-16T17:40:32;24.45;;;12.13;;
40971;SDS011;26701;47.408;19.174;2022-09-16T17:42:59;41.38;;;21.15;;
40971;SDS011;26701;47.408;19.174;2022-09-16T17:45:25;50.47;;;22.85;;
40971;SDS011;26701;47.408;19.174;2022-09-16T17:47:51;41.05;;;17.95;;
40971;SDS011;26701;47.408;19.174;2022-09-16T17:50:17;18.55;;;8.30;;
40971;SDS011;26701;47.408;19.174;2022-09-16T17:52:43;10.40;;;5.05;;
40971;SDS011;26701;47.408;19.174;2022-09-16T17:55:10;17.95;;;4.75;;
40971;SDS011;26701;47.408;19.174;2022-09-16T17:57:36;9.57;;;4.07;;
40971;SDS011;26701;47.408;19.174;2022-09-16T18:00:03;15.25;;;4.68;;
40971;SDS011;26701;47.408;19.174;2022-09-16T18:02:37;15.82;;;5.32;;
40971;SDS011;26701;47.408;19.174;2022-09-16T18:05:03;11.15;;;3.70;;